Time;durP1;ratioP1;P1;durP2;ratioP2;P2;SDS_P1;SDS_P2;PMS_P1;PMS_P2;Temp;Humidity;BMP_temperature;BMP_pressure;BME280_temperature;BME280_humidity;BME280_pressure;Samples;Min_cycle;Max_cycle;Signal;HPM_P1;HPM_P2
2021/04/22 00:01:15;;;;;;;11.40;2.53;;;7.50;92.20;;;;;;5032267;28;20210;-52
2021/04/22 00:03:41;;;;;;;11.90;2.57;;;7.50;99.90;;;;;;5024720;28;20287;-52
2021/04/22 00:06:08;;;;;;;7.57;2.00;;;7.50;99.90;;;;;;5026771;28;20255;-52
2021/04/22 00:08:34;;;;;;;8.83;2.20;;;7.50;99.90;;;;;;5025855;28;20278;-52
2021/04/22 00:11:01;;;;;;;8.17;1.60;;;7.60;59.60;;;;;;5026903;28;20792;-52
2021/04/22 00:13:29;;;;;;;15.07;2.63;;;7.70;1.00;;;;;;5029737;28;20247;-52
2021/04/22 00:16:00;;;;;;;7.13;2.13;;;7.50;1.00;;;;;;5026052;28;20266;-52
2021/04/22 00:18:26;;;;;;;11.03;2.47;;;7.50;21.20;;;;;;5028084;28;20240;-52
2021/04/22 00:20:52;;;;;;;12.00;2.47;;;7.40;99.90;;;;;;5027633;28;20250;-51
2021/04/22 00:23:19;;;;;;;8.90;1.93;;;7.50;99.90;;;;;;5031174;28;20218;-52
2021/04/22 00:25:46;;;;;;;12.97;2.30;;;7.40;99.90;;;;;;5025678;28;20214;-52
2021/04/22 00:28:14;;;;;;;16.27;2.63;;;7.40;99.90;;;;;;5028334;28;20250;-52
2021/04/22 00:30:42;;;;;;;8.77;2.30;;;7.40;95.80;;;;;;5031656;28;20301;-52
2021/04/22 00:33:12;;;;;;;9.33;1.93;;;7.60;99.90;;;;;;5029782;28;20276;-52
2021/04/22 00:35:39;;;;;;;9.67;2.33;;;7.50;99.90;;;;;;5026686;28;20228;-52
2021/04/22 00:38:08;;;;;;;13.03;3.03;;;7.60;99.90;;;;;;5029178;28;20298;-52
2021/04/22 00:40:36;;;;;;;11.33;2.40;;;7.60;99.90;;;;;;5031758;28;20303;-52
2021/04/22 00:43:05;;;;;;;12.53;2.40;;;7.40;99.90;;;;;;5033830;28;20271;-52
2021/04/22 00:45:32;;;;;;;11.90;2.27;;;7.40;99.90;;;;;;5036487;28;20244;-52
2021/04/22 00:47:59;;;;;;;9.00;2.63;;;7.60;99.90;;;;;;5032776;28;20821;-52
2021/04/22 00:50:30;;;;;;;11.23;2.20;;;7.50;99.90;;;;;;5029577;28;20338;-52
2021/04/22 00:52:58;;;;;;;10.00;2.50;;;7.50;99.90;;;;;;5028340;28;20279;-52
2021/04/22 00:55:25;;;;;;;9.87;2.83;;;7.40;99.90;;;;;;5028857;28;20204;-52
2021/04/22 00:57:53;;;;;;;7.13;2.60;;;7.50;99.90;;;;;;5028035;28;20551;-52
2021/04/22 01:00:22;;;;;;;9.17;2.80;;;7.30;99.90;;;;;;5025646;28;20364;-52
2021/04/22 01:02:48;;;;;;;12.23;2.67;;;7.20;99.90;;;;;;5036003;28;20194;-52
2021/04/22 01:05:19;;;;;;;14.57;3.40;;;7.10;99.90;;;;;;5032501;28;20227;-52
2021/04/22 01:07:46;;;;;;;11.87;2.40;;;7.20;99.90;;;;;;5031447;28;20302;-52
2021/04/22 01:10:15;;;;;;;7.27;2.50;;;7.10;1.00;;;;;;5031597;28;20227;-52
2021/04/22 01:12:42;;;;;;;9.83;2.40;;;7.10;99.90;;;;;;5029455;28;20235;-52
2021/04/22 01:15:12;;;;;;;18.50;3.77;;;7.10;99.90;;;;;;5025165;28;20296;-52
2021/04/22 01:17:38;;;;;;;15.10;2.70;;;7.00;99.90;;;;;;5034213;28;20309;-52
2021/04/22 01:20:11;;;;;;;8.40;2.13;;;7.00;99.90;;;;;;5025669;28;20578;-52
2021/04/22 01:22:38;;;;;;;15.23;2.90;;;7.10;99.90;;;;;;5029424;28;20202;-52
2021/04/22 01:25:07;;;;;;;7.77;2.60;;;7.20;99.90;;;;;;5027375;28;20242;-52
2021/04/22 01:27:34;;;;;;;7.83;2.53;;;7.20;99.90;;;;;;5037072;28;20291;-52
2021/04/22 01:30:02;;;;;;;8.43;2.20;;;7.20;99.90;;;;;;5032738;28;20386;-52
2021/04/22 01:32:28;;;;;;;7.63;2.53;;;7.20;99.90;;;;;;5031461;28;20196;-52
2021/04/22 01:34:55;;;;;;;5.43;2.30;;;7.20;99.90;;;;;;5027471;28;20212;-52
2021/04/22 01:37:21;;;;;;;11.73;3.60;;;7.10;99.90;;;;;;5027263;28;20336;-52
2021/04/22 01:39:48;;;;;;;10.43;2.50;;;7.10;99.90;;;;;;5032260;28;20230;-52
2021/04/22 01:42:14;;;;;;;10.47;2.73;;;7.10;99.90;;;;;;5031962;28;20737;-52
2021/04/22 01:44:41;;;;;;;11.70;2.70;;;7.10;99.90;;;;;;5034036;28;20213;-52
2021/04/22 01:47:07;;;;;;;11.77;2.60;;;7.10;99.90;;;;;;5033134;28;20786;-52
2021/04/22 01:49:34;;;;;;;8.43;2.53;;;6.90;99.90;;;;;;5038599;28;20287;-52
2021/04/22 01:52:00;;;;;;;8.77;2.53;;;6.80;99.90;;;;;;5030556;28;20298;-52
2021/04/22 01:54:26;;;;;;;11.87;3.33;;;6.90;99.90;;;;;;5029785;28;20201;-52
2021/04/22 01:56:52;;;;;;;10.00;2.40;;;6.80;99.90;;;;;;5033816;28;20236;-52
2021/04/22 01:59:19;;;;;;;8.70;3.37;;;6.80;99.90;;;;;;5032558;28;20605;-52
2021/04/22 02:01:45;;;;;;;10.00;2.93;;;6.80;99.90;;;;;;5036392;28;20260;-52
2021/04/22 02:04:11;;;;;;;5.70;2.20;;;6.80;99.90;;;;;;5038946;28;20682;-52
2021/04/22 02:06:38;;;;;;;8.17;2.43;;;6.70;99.90;;;;;;5026164;28;20237;-52
2021/04/22 02:09:04;;;;;;;10.47;2.70;;;6.70;99.90;;;;;;5030545;28;20192;-52
2021/04/22 02:11:31;;;;;;;10.53;2.30;;;6.70;99.90;;;;;;5042259;28;20268;-52
2021/04/22 02:13:57;;;;;;;17.70;4.10;;;6.70;99.90;;;;;;5029170;28;20254;-52
2021/04/22 02:16:23;;;;;;;11.57;2.93;;;7.00;99.90;;;;;;5035888;28;21809;-52
2021/04/22 02:18:49;;;;;;;6.37;2.77;;;6.80;99.90;;;;;;5036503;28;20753;-53
2021/04/22 02:21:16;;;;;;;7.23;2.73;;;6.90;99.90;;;;;;5034204;28;20744;-52
2021/04/22 02:23:42;;;;;;;5.53;2.53;;;6.70;99.90;;;;;;5037692;28;20672;-52
2021/04/22 02:26:10;;;;;;;10.37;3.30;;;6.90;99.90;;;;;;5028088;28;20589;-52
2021/04/22 02:28:36;;;;;;;12.10;3.17;;;7.00;99.90;;;;;;5029684;28;20291;-52
2021/04/22 02:31:03;;;;;;;11.93;2.90;;;6.90;99.90;;;;;;5032646;28;20256;-52
2021/04/22 02:33:29;;;;;;;12.73;3.03;;;6.80;99.90;;;;;;5033669;28;20203;-52
2021/04/22 02:35:56;;;;;;;9.57;2.63;;;6.90;99.90;;;;;;5026079;28;20283;-52
2021/04/22 02:38:22;;;;;;;8.03;2.73;;;7.00;99.90;;;;;;5036451;28;20216;-52
2021/04/22 02:40:49;;;;;;;10.63;2.70;;;7.00;99.90;;;;;;5031652;28;20234;-52
2021/04/22 02:43:17;;;;;;;15.60;3.37;;;7.10;99.90;;;;;;5033958;28;20212;-52
2021/04/22 02:45:51;;;;;;;14.40;3.30;;;7.20;99.90;;;;;;5028694;28;20322;-52
2021/04/22 02:48:19;;;;;;;8.93;2.60;;;7.20;99.90;;;;;;5037956;28;20208;-52
2021/04/22 02:50:50;;;;;;;7.53;2.27;;;7.10;99.90;;;;;;5026430;28;20203;-52
2021/04/22 02:53:17;;;;;;;13.83;3.30;;;7.10;99.90;;;;;;5030374;28;20725;-52
2021/04/22 02:55:45;;;;;;;11.20;3.40;;;7.10;99.90;;;;;;5026255;28;20200;-52
2021/04/22 02:58:22;;;;;;;16.80;2.87;;;7.10;99.90;;;;;;5034820;28;20250;-52
2021/04/22 03:00:49;;;;;;;10.80;2.93;;;7.00;99.90;;;;;;5033583;28;20197;-52
2021/04/22 03:03:15;;;;;;;9.50;2.80;;;7.00;99.90;;;;;;5031036;28;20218;-52
2021/04/22 03:05:42;;;;;;;6.77;2.80;;;6.90;99.90;;;;;;5035764;28;20326;-52
2021/04/22 03:08:08;;;;;;;8.77;2.70;;;6.90;99.90;;;;;;5035035;28;20260;-52
2021/04/22 03:10:36;;;;;;;12.03;2.87;;;6.90;99.90;;;;;;5037554;28;20199;-52
2021/04/22 03:13:04;;;;;;;8.60;3.50;;;7.00;99.90;;;;;;5037769;28;20308;-52
2021/04/22 03:15:30;;;;;;;7.00;3.00;;;7.10;99.90;;;;;;5031002;28;20300;-52
2021/04/22 03:17:58;;;;;;;6.43;3.10;;;7.20;99.90;;;;;;5031145;28;20243;-52
2021/04/22 03:20:24;;;;;;;13.37;3.37;;;7.10;99.90;;;;;;5028188;28;20202;-52
2021/04/22 03:22:51;;;;;;;10.53;3.43;;;7.20;99.90;;;;;;5019522;28;20199;-52
2021/04/22 03:25:21;;;;;;;11.73;3.50;;;7.20;99.90;;;;;;5030173;28;20194;-52
2021/04/22 03:27:47;;;;;;;12.50;3.30;;;7.00;99.90;;;;;;5035217;28;20665;-52
2021/04/22 03:30:20;;;;;;;8.27;2.80;;;7.00;99.90;;;;;;5028959;28;20235;-52
2021/04/22 03:32:47;;;;;;;7.30;2.73;;;6.90;99.90;;;;;;5029908;28;20237;-52
2021/04/22 03:35:13;;;;;;;7.93;3.23;;;6.90;99.90;;;;;;5033142;28;20294;-52
2021/04/22 03:37:40;;;;;;;9.07;3.47;;;6.90;99.90;;;;;;5027815;28;20236;-52
2021/04/22 03:40:10;;;;;;;11.90;3.43;;;6.90;99.90;;;;;;5033153;28;20228;-52
2021/04/22 03:42:36;;;;;;;7.13;3.70;;;6.90;99.90;;;;;;5032900;28;20346;-52
2021/04/22 03:45:04;;;;;;;7.97;2.83;;;7.00;99.90;;;;;;5031853;28;20708;-52
2021/04/22 03:47:31;;;;;;;10.83;3.57;;;6.90;1.00;;;;;;5036052;28;20221;-52
2021/04/22 03:49:57;;;;;;;9.80;3.13;;;7.00;1.00;;;;;;5030887;28;20602;-52
2021/04/22 03:52:23;;;;;;;9.70;3.40;;;7.10;99.90;;;;;;5035927;28;20257;-52
2021/04/22 03:54:50;;;;;;;9.23;3.23;;;7.10;99.90;;;;;;5034111;28;20197;-52
2021/04/22 03:57:17;;;;;;;9.03;3.50;;;7.00;99.90;;;;;;5033997;28;20251;-52
2021/04/22 03:59:43;;;;;;;10.17;3.77;;;6.90;99.90;;;;;;5030069;28;20192;-52
2021/04/22 04:02:09;;;;;;;7.80;3.27;;;7.00;99.90;;;;;;5029750;28;20214;-52
2021/04/22 04:04:36;;;;;;;7.77;2.93;;;7.00;99.90;;;;;;5034298;28;20204;-52
2021/04/22 04:07:03;;;;;;;14.43;4.83;;;6.90;99.90;;;;;;5030949;28;20753;-52
2021/04/22 04:09:29;;;;;;;15.37;3.70;;;6.80;1.00;;;;;;5035385;28;20409;-52
2021/04/22 04:11:55;;;;;;;15.93;3.80;;;6.80;1.00;;;;;;5030708;28;20221;-52
2021/04/22 04:14:21;;;;;;;12.53;4.10;;;6.70;1.00;;;;;;5031849;28;20589;-52
2021/04/22 04:16:48;;;;;;;14.80;3.10;;;6.70;1.00;;;;;;5034403;28;20354;-52
2021/04/22 04:19:14;;;;;;;11.73;3.37;;;6.80;1.00;;;;;;5030126;28;20255;-52
2021/04/22 04:21:41;;;;;;;18.63;3.40;;;6.50;1.00;;;;;;5032183;28;20196;-52
2021/04/22 04:24:08;;;;;;;9.60;3.20;;;6.60;19.30;;;;;;5028479;28;20201;-52
2021/04/22 04:26:34;;;;;;;12.57;3.47;;;6.40;99.90;;;;;;5030732;28;20313;-52
2021/04/22 04:29:01;;;;;;;7.13;3.00;;;6.40;99.90;;;;;;5037106;28;20250;-52
2021/04/22 04:31:27;;;;;;;13.80;3.37;;;6.60;99.90;;;;;;5031003;28;20265;-52
2021/04/22 04:33:55;;;;;;;14.00;3.77;;;6.70;99.90;;;;;;5030196;28;20726;-52
2021/04/22 04:36:22;;;;;;;17.83;3.73;;;6.70;98.00;;;;;;5028916;28;20281;-52
2021/04/22 04:38:48;;;;;;;11.63;2.90;;;6.80;99.90;;;;;;5034238;28;20547;-51
2021/04/22 04:41:15;;;;;;;10.17;2.97;;;6.80;99.90;;;;;;5030482;28;20203;-52
2021/04/22 04:43:43;;;;;;;11.30;3.13;;;6.80;99.90;;;;;;5033831;28;20267;-52
2021/04/22 04:46:12;;;;;;;16.00;3.47;;;6.80;99.90;;;;;;5029449;28;20731;-52
2021/04/22 04:48:40;;;;;;;12.73;4.57;;;6.80;99.90;;;;;;5032993;28;20287;-52
2021/04/22 04:51:07;;;;;;;11.80;3.50;;;6.90;99.90;;;;;;5029040;28;20210;-52
2021/04/22 04:53:33;;;;;;;13.87;3.60;;;7.00;99.90;;;;;;5039789;28;20467;-52
2021/04/22 04:55:59;;;;;;;10.93;3.53;;;7.00;99.90;;;;;;5025633;28;20340;-52
2021/04/22 04:58:30;;;;;;;22.40;3.70;;;7.00;99.90;;;;;;5031059;28;20631;-52
2021/04/22 05:00:56;;;;;;;14.27;4.47;;;6.90;99.90;;;;;;5032302;28;20666;-52
2021/04/22 05:03:22;;;;;;;12.03;3.80;;;6.90;99.90;;;;;;5032109;28;20306;-52
2021/04/22 05:05:48;;;;;;;17.57;3.40;;;6.90;99.90;;;;;;5029289;28;20213;-52
2021/04/22 05:08:15;;;;;;;12.43;3.80;;;7.00;99.90;;;;;;5026318;28;20235;-52
2021/04/22 05:10:41;;;;;;;10.73;3.77;;;7.00;99.90;;;;;;5038423;28;20196;-53
2021/04/22 05:13:07;;;;;;;9.73;3.23;;;7.00;99.90;;;;;;5026597;28;20237;-53
2021/04/22 05:15:34;;;;;;;8.20;3.70;;;7.10;99.90;;;;;;5030500;28;20255;-53
2021/04/22 05:18:00;;;;;;;9.50;3.90;;;7.20;99.90;;;;;;5028234;28;20255;-53
2021/04/22 05:20:26;;;;;;;12.70;4.37;;;7.20;99.90;;;;;;5035708;28;20198;-52
2021/04/22 05:22:53;;;;;;;15.70;3.87;;;7.20;99.90;;;;;;5035908;28;20212;-53
2021/04/22 05:25:19;;;;;;;16.47;4.37;;;7.30;99.90;;;;;;5030859;28;20275;-52
2021/04/22 05:27:45;;;;;;;13.90;4.20;;;7.20;99.90;;;;;;5028529;28;20333;-52
2021/04/22 05:30:13;;;;;;;14.83;3.77;;;7.20;99.90;;;;;;5033104;28;20700;-53
2021/04/22 05:32:39;;;;;;;13.50;4.30;;;7.20;99.90;;;;;;5016722;28;20205;-53
2021/04/22 05:35:06;;;;;;;18.97;3.80;;;7.40;99.90;;;;;;5024863;28;20199;-53
2021/04/22 05:37:49;;;;;;;8.77;3.70;;;7.40;99.90;;;;;;5023494;28;20641;-53
2021/04/22 05:40:16;;;;;;;16.30;4.30;;;7.40;99.90;;;;;;5027961;28;20232;-53
2021/04/22 05:42:42;;;;;;;11.60;3.67;;;7.40;99.90;;;;;;5026587;28;20225;-53
2021/04/22 05:45:13;;;;;;;9.40;3.87;;;7.30;99.90;;;;;;5025260;28;20404;-53
2021/04/22 05:47:39;;;;;;;10.00;4.20;;;7.40;99.90;;;;;;5032500;28;20333;-53
2021/04/22 05:50:06;;;;;;;17.07;5.13;;;7.50;99.90;;;;;;5032278;28;20277;-53
2021/04/22 05:52:32;;;;;;;14.20;5.40;;;7.50;99.90;;;;;;5025760;28;20228;-53
2021/04/22 05:54:58;;;;;;;13.47;4.73;;;7.60;99.90;;;;;;5024649;28;20644;-53
2021/04/22 05:57:25;;;;;;;12.77;4.97;;;7.40;99.90;;;;;;5027700;28;20600;-52
2021/04/22 05:59:51;;;;;;;11.40;5.10;;;7.50;99.90;;;;;;5025082;28;20704;-52
2021/04/22 06:02:20;;;;;;;18.53;4.93;;;7.70;99.90;;;;;;5021482;28;20776;-52
2021/04/22 06:04:46;;;;;;;11.27;4.70;;;7.90;99.90;;;;;;5033660;28;20258;-52
2021/04/22 06:07:12;;;;;;;10.23;4.67;;;8.10;99.90;;;;;;5031215;28;20645;-52
2021/04/22 06:09:39;;;;;;;13.40;4.67;;;8.10;99.90;;;;;;5029250;28;20262;-52
2021/04/22 06:12:06;;;;;;;15.60;4.33;;;8.20;99.90;;;;;;5026669;28;20683;-52
2021/04/22 06:14:33;;;;;;;12.80;3.43;;;8.10;99.90;;;;;;5024678;28;20609;-52
2021/04/22 06:16:59;;;;;;;9.80;3.57;;;8.00;99.90;;;;;;5025267;28;20985;-53
2021/04/22 06:19:26;;;;;;;12.83;3.33;;;7.90;99.90;;;;;;5024044;28;20204;-52
2021/04/22 06:21:53;;;;;;;11.60;3.70;;;7.90;99.90;;;;;;5029235;28;20267;-52
2021/04/22 06:24:19;;;;;;;9.13;4.03;;;8.00;99.90;;;;;;5029827;28;20208;-52
2021/04/22 06:26:47;;;;;;;7.13;3.10;;;8.00;99.90;;;;;;5026037;28;20746;-53
2021/04/22 06:29:13;;;;;;;10.60;3.33;;;8.10;99.90;;;;;;5023247;28;20303;-53
2021/04/22 06:31:39;;;;;;;10.80;3.30;;;8.40;99.90;;;;;;5026815;28;20756;-53
2021/04/22 06:34:05;;;;;;;7.47;3.03;;;8.40;99.90;;;;;;5027576;28;20214;-53
2021/04/22 06:36:32;;;;;;;7.27;3.23;;;8.40;99.90;;;;;;5028049;28;20239;-53
2021/04/22 06:38:58;;;;;;;10.87;3.13;;;8.70;99.90;;;;;;5029703;28;20210;-53
2021/04/22 06:41:25;;;;;;;9.83;2.90;;;8.70;99.90;;;;;;5030528;28;20292;-53
2021/04/22 06:43:51;;;;;;;8.77;3.07;;;8.80;99.90;;;;;;5028801;28;21040;-52
2021/04/22 06:46:17;;;;;;;8.70;3.27;;;8.80;99.90;;;;;;5033630;28;20223;-52
2021/04/22 06:48:44;;;;;;;6.80;2.53;;;8.60;99.90;;;;;;5029988;28;20720;-52
2021/04/22 06:51:11;;;;;;;7.93;3.00;;;8.60;99.90;;;;;;5027651;28;20213;-52
2021/04/22 06:53:37;;;;;;;10.47;3.23;;;8.80;99.90;;;;;;5032702;28;20580;-53
2021/04/22 06:56:04;;;;;;;8.00;3.20;;;8.80;99.90;;;;;;5031848;28;20522;-53
2021/04/22 06:58:31;;;;;;;11.23;2.60;;;8.80;99.90;;;;;;5031887;28;20666;-53
2021/04/22 07:00:57;;;;;;;8.03;2.10;;;8.60;97.20;;;;;;5029822;28;20281;-53
2021/04/22 07:03:24;;;;;;;14.47;3.30;;;8.40;96.50;;;;;;5030066;28;20318;-53
2021/04/22 07:05:50;;;;;;;8.80;2.57;;;8.30;96.60;;;;;;5026622;28;20240;-52
2021/04/22 07:08:17;;;;;;;4.93;2.93;;;8.40;98.10;;;;;;5030034;28;20598;-53
2021/04/22 07:10:43;;;;;;;4.37;2.20;;;8.60;96.90;;;;;;5027059;28;20696;-52
2021/04/22 07:13:10;;;;;;;5.33;2.40;;;8.80;93.20;;;;;;5033627;28;20609;-52
2021/04/22 07:15:37;;;;;;;9.53;2.73;;;8.70;94.00;;;;;;5033936;28;20221;-52
2021/04/22 07:18:06;;;;;;;8.27;2.50;;;8.90;92.30;;;;;;5029435;28;20635;-52
2021/04/22 07:20:33;;;;;;;5.27;2.20;;;8.70;92.90;;;;;;5028073;28;20299;-52
2021/04/22 07:23:00;;;;;;;4.60;2.20;;;8.70;95.60;;;;;;5025780;28;20202;-52
2021/04/22 07:25:33;;;;;;;9.87;2.63;;;8.70;94.90;;;;;;5029512;28;20212;-54
2021/04/22 07:28:10;;;;;;;7.33;2.40;;;8.90;94.00;;;;;;5027252;28;20244;-52
2021/04/22 07:30:37;;;;;;;11.00;3.20;;;8.90;94.20;;;;;;5024185;28;20254;-52
2021/04/22 07:33:06;;;;;;;8.63;3.00;;;8.80;93.70;;;;;;5031936;28;20235;-52
2021/04/22 07:35:33;;;;;;;7.63;2.60;;;8.80;94.40;;;;;;5032451;28;20209;-52
2021/04/22 07:38:00;;;;;;;12.93;3.33;;;8.70;93.30;;;;;;5026911;28;20618;-52
2021/04/22 07:40:29;;;;;;;8.53;2.70;;;8.90;94.40;;;;;;5033687;28;20657;-52
2021/04/22 07:42:56;;;;;;;9.57;2.50;;;9.20;91.90;;;;;;5029185;28;20252;-52
2021/04/22 07:45:33;;;;;;;8.90;2.37;;;9.70;92.70;;;;;;5031085;28;20204;-52
2021/04/22 07:48:01;;;;;;;6.67;2.13;;;10.20;86.50;;;;;;5029919;28;20330;-52
2021/04/22 07:50:29;;;;;;;3.23;1.47;;;9.70;82.80;;;;;;5033772;28;20191;-52
2021/04/22 07:52:55;;;;;;;4.17;2.00;;;10.00;80.90;;;;;;5034544;28;20253;-53
2021/04/22 07:55:27;;;;;;;5.00;2.13;;;9.90;78.20;;;;;;5032845;28;20271;-52
2021/04/22 07:57:55;;;;;;;6.93;2.00;;;9.90;76.60;;;;;;5032174;28;20287;-52
2021/04/22 08:00:23;;;;;;;7.60;2.10;;;10.20;75.20;;;;;;5030579;28;20299;-52
2021/04/22 08:02:50;;;;;;;5.33;2.20;;;10.20;76.80;;;;;;5028274;28;20201;-52
2021/04/22 08:05:20;;;;;;;14.57;2.67;;;10.50;73.90;;;;;;5027125;28;20339;-52
2021/04/22 08:08:04;;;;;;;4.97;1.57;;;10.40;72.50;;;;;;5030459;28;20774;-52
2021/04/22 08:10:33;;;;;;;5.70;1.60;;;10.40;70.50;;;;;;5031401;28;20256;-52
2021/04/22 08:13:03;;;;;;;4.50;1.60;;;10.60;63.90;;;;;;5027773;28;20274;-52
2021/04/22 08:15:31;;;;;;;7.90;1.63;;;11.00;60.90;;;;;;5026140;28;20189;-52
2021/04/22 08:17:58;;;;;;;10.83;1.97;;;11.00;58.10;;;;;;5029683;28;20262;-52
2021/04/22 08:20:26;;;;;;;8.97;1.90;;;10.80;58.60;;;;;;5030898;28;20250;-52
2021/04/22 08:22:56;;;;;;;6.83;2.57;;;10.90;58.20;;;;;;5029470;28;21909;-53
2021/04/22 08:25:43;;;;;;;7.50;2.20;;;11.40;54.60;;;;;;5031226;28;20198;-52
2021/04/22 08:28:13;;;;;;;7.17;1.77;;;11.40;53.00;;;;;;5031176;28;20601;-53
2021/04/22 08:31:01;;;;;;;8.27;1.97;;;11.30;51.80;;;;;;5028607;28;20246;-53
2021/04/22 08:33:30;;;;;;;6.17;1.73;;;11.10;53.90;;;;;;5033407;28;20515;-53
2021/04/22 08:35:59;;;;;;;2.17;1.33;;;11.10;56.30;;;;;;5028758;28;20285;-52
2021/04/22 08:38:25;;;;;;;5.57;2.27;;;11.00;57.20;;;;;;5031655;28;20691;-52
2021/04/22 08:40:53;;;;;;;6.70;1.70;;;10.90;58.50;;;;;;5036301;28;20435;-52
2021/04/22 08:43:20;;;;;;;10.33;2.20;;;10.90;55.20;;;;;;5032519;28;20224;-52
2021/04/22 08:45:47;;;;;;;7.87;2.00;;;10.80;57.70;;;;;;5031519;28;20223;-52
2021/04/22 08:48:14;;;;;;;6.33;2.00;;;11.40;57.90;;;;;;5034781;28;20213;-53
2021/04/22 08:50:43;;;;;;;8.37;1.73;;;11.80;55.00;;;;;;5029088;28;20209;-53
2021/04/22 08:53:25;;;;;;;4.27;1.63;;;11.80;51.50;;;;;;5030324;28;20245;-52
2021/04/22 08:55:52;;;;;;;8.50;1.70;;;11.50;50.90;;;;;;5034395;28;20259;-52
2021/04/22 08:58:18;;;;;;;3.50;1.57;;;11.30;51.50;;;;;;5033170;28;20342;-52
2021/04/22 09:00:58;;;;;;;6.37;2.00;;;11.20;50.80;;;;;;5037118;28;20296;-52
2021/04/22 09:03:25;;;;;;;6.07;2.07;;;11.00;51.80;;;;;;5035304;28;20258;-53
2021/04/22 09:05:52;;;;;;;5.27;1.73;;;10.70;54.50;;;;;;5027008;28;20234;-53
2021/04/22 09:08:44;;;;;;;3.43;1.80;;;10.60;55.50;;;;;;5032219;28;20233;-52
2021/04/22 09:11:14;;;;;;;4.83;2.00;;;10.80;55.40;;;;;;5032295;28;20300;-52
2021/04/22 09:13:41;;;;;;;4.87;1.67;;;10.60;56.10;;;;;;5030468;28;20261;-52
2021/04/22 09:16:17;;;;;;;7.43;1.80;;;10.40;56.50;;;;;;5030229;28;21175;-53
2021/04/22 09:18:53;;;;;;;6.93;1.97;;;10.80;55.50;;;;;;5024822;28;20478;-53
2021/04/22 09:21:23;;;;;;;7.20;1.97;;;10.90;54.30;;;;;;5033809;28;20246;-52
2021/04/22 09:24:12;;;;;;;6.10;1.90;;;11.00;52.20;;;;;;5032299;28;20207;-52
2021/04/22 09:26:52;;;;;;;5.67;2.03;;;11.40;50.00;;;;;;5033990;28;20597;-52
2021/04/22 09:29:46;;;;;;;4.67;1.90;;;12.10;48.40;;;;;;5027224;28;20235;-52
2021/04/22 09:32:18;;;;;;;9.50;1.67;;;12.00;46.10;;;;;;5029959;28;20295;-52
2021/04/22 09:34:53;;;;;;;3.37;1.70;;;11.80;44.80;;;;;;5033225;28;20233;-52
2021/04/22 09:37:24;;;;;;;5.30;1.63;;;11.70;46.40;;;;;;5027805;28;20208;-52
2021/04/22 09:39:51;;;;;;;5.17;2.03;;;11.80;44.70;;;;;;5033190;28;20206;-53
2021/04/22 09:42:18;;;;;;;8.90;1.90;;;11.30;47.70;;;;;;5029852;28;20313;-52
2021/04/22 09:44:48;;;;;;;5.23;1.90;;;11.40;46.10;;;;;;5036247;28;20201;-52
2021/04/22 09:47:16;;;;;;;4.40;1.70;;;11.90;44.20;;;;;;5029075;28;20583;-52
2021/04/22 09:49:57;;;;;;;9.70;2.47;;;12.50;44.60;;;;;;5020533;28;20193;-53
2021/04/22 09:52:38;;;;;;;4.03;2.10;;;12.60;40.70;;;;;;5032337;28;20304;-53
2021/04/22 09:55:07;;;;;;;3.60;1.77;;;12.50;42.60;;;;;;5031594;28;20207;-52
2021/04/22 09:57:35;;;;;;;6.53;1.97;;;13.00;38.90;;;;;;5033074;28;20206;-53
2021/04/22 10:00:18;;;;;;;4.77;1.80;;;13.30;38.10;;;;;;5033521;28;20216;-53
2021/04/22 10:02:54;;;;;;;6.37;2.47;;;13.30;36.30;;;;;;5031337;28;20293;-52
2021/04/22 10:05:29;;;;;;;4.17;2.10;;;13.10;35.10;;;;;;5034696;28;20259;-52
2021/04/22 10:08:16;;;;;;;5.00;2.30;;;13.00;36.00;;;;;;5035926;28;20684;-52
2021/04/22 10:11:07;;;;;;;5.40;1.77;;;13.00;35.40;;;;;;5038717;28;20225;-53
2021/04/22 10:14:02;;;;;;;6.67;1.63;;;12.70;37.50;;;;;;5039639;28;20250;-53
2021/04/22 10:16:32;;;;;;;4.13;1.63;;;12.60;39.40;;;;;;5039514;28;20253;-52
2021/04/22 10:18:59;;;;;;;8.07;2.40;;;13.40;33.60;;;;;;5039229;28;20606;-53
2021/04/22 10:21:27;;;;;;;5.80;2.27;;;13.10;36.60;;;;;;5034036;28;20221;-53
2021/04/22 10:24:04;;;;;;;5.20;1.77;;;13.00;36.10;;;;;;5038767;28;20248;-52
2021/04/22 10:26:30;;;;;;;3.73;1.90;;;12.90;38.10;;;;;;5036098;28;20245;-53
2021/04/22 10:28:56;;;;;;;5.73;1.50;;;12.90;39.20;;;;;;5038556;28;20200;-53
2021/04/22 10:31:25;;;;;;;4.97;1.73;;;12.70;37.00;;;;;;5037825;28;20570;-53
2021/04/22 10:33:57;;;;;;;4.43;1.70;;;13.00;34.40;;;;;;5037159;28;20673;-53
2021/04/22 10:36:24;;;;;;;3.47;1.43;;;13.20;34.50;;;;;;5040723;28;20221;-53
2021/04/22 10:38:55;;;;;;;4.97;1.80;;;13.70;31.50;;;;;;5036977;28;20230;-53
2021/04/22 10:41:23;;;;;;;7.07;1.73;;;13.50;32.50;;;;;;5032734;28;20195;-53
2021/04/22 10:43:49;;;;;;;5.40;1.90;;;13.10;35.40;;;;;;5032930;28;20205;-53
2021/04/22 10:46:17;;;;;;;7.03;1.83;;;13.00;34.40;;;;;;5040169;28;20609;-52
2021/04/22 10:48:44;;;;;;;6.10;1.80;;;13.00;35.40;;;;;;5040588;28;20600;-53
2021/04/22 10:51:11;;;;;;;9.03;2.37;;;13.40;34.60;;;;;;5030582;28;20287;-52
2021/04/22 10:53:41;;;;;;;5.67;1.90;;;13.30;35.20;;;;;;5030730;28;20266;-53
2021/04/22 10:56:08;;;;;;;5.23;1.70;;;13.10;34.20;;;;;;5029621;28;20259;-53
2021/04/22 10:58:45;;;;;;;4.90;2.00;;;13.50;35.30;;;;;;5046160;28;20532;-53
2021/04/22 11:01:13;;;;;;;2.67;1.47;;;13.50;35.50;;;;;;5038150;28;20259;-53
2021/04/22 11:03:42;;;;;;;3.50;1.70;;;13.70;32.80;;;;;;5032083;28;20363;-53
2021/04/22 11:06:15;;;;;;;4.43;2.20;;;13.90;29.60;;;;;;5036435;28;20554;-53
2021/04/22 11:08:54;;;;;;;6.53;2.07;;;13.80;30.00;;;;;;5033223;28;20262;-53
2021/04/22 11:11:29;;;;;;;3.67;1.70;;;14.60;28.30;;;;;;5037344;28;20296;-52
2021/04/22 11:14:07;;;;;;;4.77;1.63;;;15.10;28.20;;;;;;5033961;28;20212;-53
2021/04/22 11:16:36;;;;;;;4.50;1.83;;;15.60;26.00;;;;;;5035831;28;20196;-53
2021/04/22 11:19:18;;;;;;;5.33;2.20;;;15.50;26.50;;;;;;5035915;28;20505;-53
2021/04/22 11:21:55;;;;;;;5.87;2.40;;;15.40;24.50;;;;;;5038832;28;20216;-53
2021/04/22 11:24:54;;;;;;;8.20;1.93;;;14.40;26.20;;;;;;5034011;28;20658;-53
2021/04/22 11:27:23;;;;;;;7.33;2.00;;;13.70;28.20;;;;;;5046801;28;20233;-53
2021/04/22 11:29:50;;;;;;;3.97;1.90;;;14.30;26.10;;;;;;5030882;28;20204;-53
2021/04/22 11:32:19;;;;;;;5.80;1.80;;;14.70;25.70;;;;;;5031262;28;20260;-53
2021/04/22 11:34:45;;;;;;;6.93;1.73;;;14.50;25.00;;;;;;5030100;28;20192;-53
2021/04/22 11:37:24;;;;;;;6.20;2.07;;;14.70;22.90;;;;;;5030162;28;20227;-53
2021/04/22 11:39:51;;;;;;;4.67;1.83;;;14.50;23.80;;;;;;5025090;28;20239;-53
2021/04/22 11:42:19;;;;;;;3.73;2.17;;;14.90;24.10;;;;;;5036642;28;20199;-53
2021/04/22 11:44:51;;;;;;;3.17;1.80;;;14.90;24.50;;;;;;5032078;28;20222;-53
2021/04/22 11:47:19;;;;;;;5.13;1.60;;;15.00;23.60;;;;;;5030979;28;20223;-53
2021/04/22 11:49:48;;;;;;;3.00;1.80;;;14.90;23.90;;;;;;5027752;28;20243;-53
2021/04/22 11:52:22;;;;;;;2.93;1.67;;;15.00;24.20;;;;;;5025961;28;20311;-53
2021/04/22 11:54:49;;;;;;;2.90;1.87;;;15.30;20.80;;;;;;5027489;28;20296;-53
2021/04/22 11:57:17;;;;;;;5.30;1.67;;;15.90;18.60;;;;;;5031288;28;20201;-53
2021/04/22 11:59:52;;;;;;;4.70;1.80;;;16.50;17.20;;;;;;5034609;28;20641;-53
2021/04/22 12:02:18;;;;;;;8.57;2.63;;;16.00;16.70;;;;;;5027518;28;20256;-53
2021/04/22 12:04:50;;;;;;;3.63;1.90;;;16.10;16.40;;;;;;5038742;28;20534;-53
2021/04/22 12:07:21;;;;;;;4.20;1.93;;;15.40;18.30;;;;;;5027000;28;20297;-53
2021/04/22 12:09:50;;;;;;;10.17;2.10;;;15.40;18.80;;;;;;5035586;28;20722;-53
2021/04/22 12:12:23;;;;;;;6.30;2.03;;;15.90;15.20;;;;;;5031889;28;20197;-53
2021/04/22 12:14:53;;;;;;;2.40;1.30;;;16.00;16.10;;;;;;5028501;28;20191;-53
2021/04/22 12:17:21;;;;;;;5.87;2.00;;;16.20;15.90;;;;;;5032722;28;20272;-53
2021/04/22 12:19:53;;;;;;;3.13;1.83;;;16.40;13.00;;;;;;5032769;28;20287;-53
2021/04/22 12:22:36;;;;;;;5.67;2.20;;;16.30;13.50;;;;;;5032529;28;20602;-53
2021/04/22 12:25:11;;;;;;;5.00;1.87;;;16.40;14.90;;;;;;5029387;28;20289;-53
2021/04/22 12:28:02;;;;;;;3.70;1.83;;;15.60;14.80;;;;;;5031164;28;20255;-53
2021/04/22 12:30:45;;;;;;;5.47;1.90;;;15.80;17.60;;;;;;5028092;28;20198;-53
2021/04/22 12:33:30;;;;;;;5.90;1.87;;;15.80;16.60;;;;;;5037583;28;20194;-53
2021/04/22 12:35:59;;;;;;;4.53;1.77;;;16.40;12.80;;;;;;5028257;28;20581;-53
2021/04/22 12:38:28;;;;;;;8.20;1.73;;;16.00;14.70;;;;;;5032918;28;20266;-53
2021/04/22 12:41:00;;;;;;;3.87;1.60;;;16.00;12.30;;;;;;5032432;28;20193;-52
2021/04/22 12:43:29;;;;;;;4.47;1.97;;;15.50;15.60;;;;;;5032756;28;20226;-52
2021/04/22 12:46:04;;;;;;;7.60;2.13;;;15.90;14.40;;;;;;5028975;28;20252;-53
2021/04/22 12:48:31;;;;;;;2.90;1.70;;;16.10;12.90;;;;;;5036790;28;20216;-52
2021/04/22 12:50:57;;;;;;;4.13;2.13;;;15.30;14.10;;;;;;5029613;28;20271;-53
2021/04/22 12:53:26;;;;;;;7.20;2.30;;;15.30;15.60;;;;;;5035609;28;20567;-53
2021/04/22 12:56:07;;;;;;;4.70;1.70;;;15.50;13.60;;;;;;5032874;28;20225;-52
2021/04/22 12:58:37;;;;;;;6.17;2.00;;;15.50;15.70;;;;;;5028977;28;20711;-53
2021/04/22 13:01:09;;;;;;;2.73;1.60;;;16.00;13.10;;;;;;5031256;28;20257;-53